sensor_id;sensor_type;location;lat;lon;timestamp;P1;durP1;ratioP1;P2;durP2;ratioP2
43998;SDS011;51319;52.162;5.302;2023-07-02T00:00:05;12.68;;;4.00;;
43998;SDS011;51319;52.162;5.302;2023-07-02T00:02:33;9.27;;;4.03;;
43998;SDS011;51319;52.162;5.302;2023-07-02T00:05:00;13.20;;;3.50;;
43998;SDS011;51319;52.162;5.302;2023-07-02T00:07:27;8.77;;;4.15;;
43998;SDS011;51319;52.162;5.302;2023-07-02T00:09:54;5.72;;;3.90;;
43998;SDS011;51319;52.162;5.302;2023-07-02T00:12:21;8.05;;;3.60;;
43998;SDS011;51319;52.162;5.302;2023-07-02T00:14:48;10.63;;;4.68;;
43998;SDS011;51319;52.162;5.302;2023-07-02T00:17:19;8.68;;;4.30;;
43998;SDS011;51319;52.162;5.302;2023-07-02T00:19:46;14.30;;;4.07;;
43998;SDS011;51319;52.162;5.302;2023-07-02T00:22:18;11.60;;;5.05;;
43998;SDS011;51319;52.162;5.302;2023-07-02T00:24:45;19.05;;;4.93;;
43998;SDS011;51319;52.162;5.302;2023-07-02T00:27:12;13.70;;;4.80;;
43998;SDS011;51319;52.162;5.302;2023-07-02T00:29:39;12.30;;;5.50;;
43998;SDS011;51319;52.162;5.302;2023-07-02T00:32:06;15.05;;;5.13;;
43998;SDS011;51319;52.162;5.302;2023-07-02T00:34:33;14.77;;;5.55;;
43998;SDS011;51319;52.162;5.302;2023-07-02T00:37:00;11.63;;;5.05;;
43998;SDS011;51319;52.162;5.302;2023-07-02T00:39:26;12.48;;;5.63;;
43998;SDS011;51319;52.162;5.302;2023-07-02T00:41:53;19.25;;;5.97;;
43998;SDS011;51319;52.162;5.302;2023-07-02T00:44:25;17.75;;;6.93;;
43998;SDS011;51319;52.162;5.302;2023-07-02T00:46:52;19.80;;;7.13;;
43998;SDS011;51319;52.162;5.302;2023-07-02T00:49:19;17.02;;;6.10;;
43998;SDS011;51319;52.162;5.302;2023-07-02T00:51:46;18.60;;;6.30;;
43998;SDS011;51319;52.162;5.302;2023-07-02T00:54:13;17.35;;;6.78;;
43998;SDS011;51319;52.162;5.302;2023-07-02T00:56:40;18.38;;;6.25;;
43998;SDS011;51319;52.162;5.302;2023-07-02T00:59:07;17.30;;;7.25;;
43998;SDS011;51319;52.162;5.302;2023-07-02T01:01:34;22.70;;;6.53;;
43998;SDS011;51319;52.162;5.302;2023-07-02T01:04:06;14.07;;;6.30;;
43998;SDS011;51319;52.162;5.302;2023-07-02T01:06:38;20.35;;;6.22;;
43998;SDS011;51319;52.162;5.302;2023-07-02T01:09:08;13.77;;;6.32;;
43998;SDS011;51319;52.162;5.302;2023-07-02T01:11:56;23.00;;;7.90;;
43998;SDS011;51319;52.162;5.302;2023-07-02T01:16:54;21.50;;;6.70;;
43998;SDS011;51319;52.162;5.302;2023-07-02T01:19:43;21.42;;;7.18;;
43998;SDS011;51319;52.162;5.302;2023-07-02T01:22:11;21.02;;;7.10;;
43998;SDS011;51319;52.162;5.302;2023-07-02T01:24:39;18.58;;;6.38;;
43998;SDS011;51319;52.162;5.302;2023-07-02T01:27:06;19.00;;;6.80;;
43998;SDS011;51319;52.162;5.302;2023-07-02T01:29:33;19.45;;;7.55;;
43998;SDS011;51319;52.162;5.302;2023-07-02T01:32:03;18.80;;;7.35;;
43998;SDS011;51319;52.162;5.302;2023-07-02T01:34:31;22.92;;;7.40;;
43998;SDS011;51319;52.162;5.302;2023-07-02T01:36:58;20.02;;;7.10;;
43998;SDS011;51319;52.162;5.302;2023-07-02T01:39:27;26.15;;;8.68;;
43998;SDS011;51319;52.162;5.302;2023-07-02T01:41:55;22.23;;;7.95;;
43998;SDS011;51319;52.162;5.302;2023-07-02T01:44:35;18.70;;;8.13;;
43998;SDS011;51319;52.162;5.302;2023-07-02T01:47:02;23.27;;;8.77;;
43998;SDS011;51319;52.162;5.302;2023-07-02T01:49:29;23.20;;;8.30;;
43998;SDS011;51319;52.162;5.302;2023-07-02T01:51:57;24.48;;;8.68;;
43998;SDS011;51319;52.162;5.302;2023-07-02T01:54:25;21.05;;;8.45;;
43998;SDS011;51319;52.162;5.302;2023-07-02T01:59:22;23.30;;;7.97;;
43998;SDS011;51319;52.162;5.302;2023-07-02T02:01:52;23.17;;;8.65;;
43998;SDS011;51319;52.162;5.302;2023-07-02T02:04:19;23.55;;;7.63;;
43998;SDS011;51319;52.162;5.302;2023-07-02T02:06:46;18.52;;;7.22;;
43998;SDS011;51319;52.162;5.302;2023-07-02T02:09:13;24.45;;;8.50;;
43998;SDS011;51319;52.162;5.302;2023-07-02T02:11:41;18.67;;;8.25;;
43998;SDS011;51319;52.162;5.302;2023-07-02T02:14:09;29.02;;;8.25;;
43998;SDS011;51319;52.162;5.302;2023-07-02T02:16:36;19.98;;;8.50;;
43998;SDS011;51319;52.162;5.302;2023-07-02T02:19:03;24.05;;;9.88;;
43998;SDS011;51319;52.162;5.302;2023-07-02T02:21:31;25.92;;;9.52;;
43998;SDS011;51319;52.162;5.302;2023-07-02T02:23:58;30.30;;;9.10;;
43998;SDS011;51319;52.162;5.302;2023-07-02T02:26:25;19.50;;;8.13;;
43998;SDS011;51319;52.162;5.302;2023-07-02T02:28:52;24.88;;;8.15;;
43998;SDS011;51319;52.162;5.302;2023-07-02T02:31:21;17.67;;;7.30;;
43998;SDS011;51319;52.162;5.302;2023-07-02T02:33:49;23.75;;;8.65;;
43998;SDS011;51319;52.162;5.302;2023-07-02T02:36:16;25.92;;;8.85;;
43998;SDS011;51319;52.162;5.302;2023-07-02T02:38:44;25.45;;;8.88;;
43998;SDS011;51319;52.162;5.302;2023-07-02T02:41:10;26.02;;;9.30;;
43998;SDS011;51319;52.162;5.302;2023-07-02T02:43:40;25.13;;;8.65;;
43998;SDS011;51319;52.162;5.302;2023-07-02T02:46:10;21.88;;;8.48;;
43998;SDS011;51319;52.162;5.302;2023-07-02T02:48:37;22.48;;;9.07;;
43998;SDS011;51319;52.162;5.302;2023-07-02T02:51:04;24.70;;;8.70;;
43998;SDS011;51319;52.162;5.302;2023-07-02T02:53:32;22.65;;;8.80;;
43998;SDS011;51319;52.162;5.302;2023-07-02T02:55:59;23.15;;;8.65;;
43998;SDS011;51319;52.162;5.302;2023-07-02T02:58:26;21.80;;;8.93;;
43998;SDS011;51319;52.162;5.302;2023-07-02T03:00:54;20.13;;;8.02;;
43998;SDS011;51319;52.162;5.302;2023-07-02T03:03:21;23.48;;;8.40;;
43998;SDS011;51319;52.162;5.302;2023-07-02T03:05:51;24.65;;;8.70;;
43998;SDS011;51319;52.162;5.302;2023-07-02T03:08:17;28.25;;;9.00;;
43998;SDS011;51319;52.162;5.302;2023-07-02T03:10:44;21.92;;;8.60;;
43998;SDS011;51319;52.162;5.302;2023-07-02T03:13:12;25.52;;;9.68;;
43998;SDS011;51319;52.162;5.302;2023-07-02T03:15:39;24.52;;;9.05;;
43998;SDS011;51319;52.162;5.302;2023-07-02T03:18:06;27.02;;;9.50;;
43998;SDS011;51319;52.162;5.302;2023-07-02T03:20:33;21.15;;;8.25;;
43998;SDS011;51319;52.162;5.302;2023-07-02T03:22:59;24.00;;;9.30;;
43998;SDS011;51319;52.162;5.302;2023-07-02T03:25:26;23.77;;;9.40;;
43998;SDS011;51319;52.162;5.302;2023-07-02T03:27:53;23.35;;;8.55;;
43998;SDS011;51319;52.162;5.302;2023-07-02T03:30:20;27.17;;;9.13;;
43998;SDS011;51319;52.162;5.302;2023-07-02T03:32:47;21.80;;;8.98;;
43998;SDS011;51319;52.162;5.302;2023-07-02T03:35:14;25.20;;;8.98;;
43998;SDS011;51319;52.162;5.302;2023-07-02T03:37:41;25.52;;;8.88;;
43998;SDS011;51319;52.162;5.302;2023-07-02T03:40:10;22.88;;;8.80;;
43998;SDS011;51319;52.162;5.302;2023-07-02T03:42:37;25.55;;;9.35;;
43998;SDS011;51319;52.162;5.302;2023-07-02T03:45:04;21.73;;;9.50;;
43998;SDS011;51319;52.162;5.302;2023-07-02T03:47:31;19.90;;;8.50;;
43998;SDS011;51319;52.162;5.302;2023-07-02T03:49:59;21.92;;;8.65;;
43998;SDS011;51319;52.162;5.302;2023-07-02T03:52:26;27.05;;;8.98;;
43998;SDS011;51319;52.162;5.302;2023-07-02T03:54:53;25.50;;;8.55;;
43998;SDS011;51319;52.162;5.302;2023-07-02T03:57:20;22.63;;;8.85;;
43998;SDS011;51319;52.162;5.302;2023-07-02T03:59:47;32.22;;;10.10;;
43998;SDS011;51319;52.162;5.302;2023-07-02T04:02:13;24.75;;;9.65;;
43998;SDS011;51319;52.162;5.302;2023-07-02T04:04:40;24.33;;;9.98;;
43998;SDS011;51319;52.162;5.302;2023-07-02T04:07:07;30.60;;;9.75;;
43998;SDS011;51319;52.162;5.302;2023-07-02T04:09:34;29.77;;;10.68;;
43998;SDS011;51319;52.162;5.302;2023-07-02T04:12:01;26.88;;;9.60;;
43998;SDS011;51319;52.162;5.302;2023-07-02T04:14:28;29.67;;;10.30;;
43998;SDS011;51319;52.162;5.302;2023-07-02T04:16:55;21.45;;;8.60;;
43998;SDS011;51319;52.162;5.302;2023-07-02T04:19:22;18.02;;;7.97;;
43998;SDS011;51319;52.162;5.302;2023-07-02T04:21:49;24.00;;;9.85;;
43998;SDS011;51319;52.162;5.302;2023-07-02T04:24:16;24.58;;;8.95;;
43998;SDS011;51319;52.162;5.302;2023-07-02T04:26:43;25.05;;;9.38;;
43998;SDS011;51319;52.162;5.302;2023-07-02T04:29:30;33.05;;;10.63;;
43998;SDS011;51319;52.162;5.302;2023-07-02T04:31:57;23.00;;;9.77;;
43998;SDS011;51319;52.162;5.302;2023-07-02T04:34:24;26.05;;;9.90;;
43998;SDS011;51319;52.162;5.302;2023-07-02T04:36:51;26.40;;;9.65;;
43998;SDS011;51319;52.162;5.302;2023-07-02T04:39:19;30.95;;;10.25;;
43998;SDS011;51319;52.162;5.302;2023-07-02T04:41:46;30.27;;;8.90;;
43998;SDS011;51319;52.162;5.302;2023-07-02T04:44:18;24.20;;;9.75;;
43998;SDS011;51319;52.162;5.302;2023-07-02T04:46:48;26.00;;;9.23;;
43998;SDS011;51319;52.162;5.302;2023-07-02T04:49:15;22.27;;;9.20;;
43998;SDS011;51319;52.162;5.302;2023-07-02T04:51:42;29.02;;;9.25;;
43998;SDS011;51319;52.162;5.302;2023-07-02T04:54:09;26.80;;;9.70;;
43998;SDS011;51319;52.162;5.302;2023-07-02T04:56:35;33.47;;;10.63;;
43998;SDS011;51319;52.162;5.302;2023-07-02T04:59:02;31.70;;;9.57;;
43998;SDS011;51319;52.162;5.302;2023-07-02T05:01:29;31.17;;;8.85;;
43998;SDS011;51319;52.162;5.302;2023-07-02T05:03:56;33.90;;;10.13;;
43998;SDS011;51319;52.162;5.302;2023-07-02T05:06:24;32.17;;;9.80;;
43998;SDS011;51319;52.162;5.302;2023-07-02T05:08:51;26.83;;;9.05;;
43998;SDS011;51319;52.162;5.302;2023-07-02T05:11:19;31.80;;;9.73;;
43998;SDS011;51319;52.162;5.302;2023-07-02T05:13:46;29.58;;;8.82;;
43998;SDS011;51319;52.162;5.302;2023-07-02T05:16:12;35.60;;;9.88;;
43998;SDS011;51319;52.162;5.302;2023-07-02T05:18:40;26.25;;;9.05;;
43998;SDS011;51319;52.162;5.302;2023-07-02T05:21:07;37.05;;;10.43;;
43998;SDS011;51319;52.162;5.302;2023-07-02T05:23:34;32.35;;;9.15;;
43998;SDS011;51319;52.162;5.302;2023-07-02T05:26:01;34.58;;;8.77;;
43998;SDS011;51319;52.162;5.302;2023-07-02T05:28:28;23.63;;;8.05;;
43998;SDS011;51319;52.162;5.302;2023-07-02T05:30:55;30.77;;;10.20;;
43998;SDS011;51319;52.162;5.302;2023-07-02T05:33:22;30.38;;;9.68;;
43998;SDS011;51319;52.162;5.302;2023-07-02T05:35:49;29.80;;;8.65;;
43998;SDS011;51319;52.162;5.302;2023-07-02T05:38:17;25.60;;;7.97;;
43998;SDS011;51319;52.162;5.302;2023-07-02T05:40:45;32.38;;;9.77;;
43998;SDS011;51319;52.162;5.302;2023-07-02T05:43:13;27.20;;;9.25;;
43998;SDS011;51319;52.162;5.302;2023-07-02T05:45:40;29.20;;;8.85;;
43998;SDS011;51319;52.162;5.302;2023-07-02T05:48:06;26.40;;;8.57;;
43998;SDS011;51319;52.162;5.302;2023-07-02T05:50:33;29.42;;;8.65;;
43998;SDS011;51319;52.162;5.302;2023-07-02T05:53:00;24.30;;;8.43;;
43998;SDS011;51319;52.162;5.302;2023-07-02T05:55:27;25.70;;;8.52;;
43998;SDS011;51319;52.162;5.302;2023-07-02T05:57:54;25.75;;;8.77;;
43998;SDS011;51319;52.162;5.302;2023-07-02T06:00:23;32.10;;;9.02;;
43998;SDS011;51319;52.162;5.302;2023-07-02T06:02:50;27.20;;;8.50;;
43998;SDS011;51319;52.162;5.302;2023-07-02T06:05:17;24.83;;;8.90;;
43998;SDS011;51319;52.162;5.302;2023-07-02T06:07:44;26.88;;;7.70;;
43998;SDS011;51319;52.162;5.302;2023-07-02T06:10:11;32.17;;;8.10;;
43998;SDS011;51319;52.162;5.302;2023-07-02T06:12:38;27.80;;;8.52;;
43998;SDS011;51319;52.162;5.302;2023-07-02T06:15:05;21.65;;;7.60;;
43998;SDS011;51319;52.162;5.302;2023-07-02T06:17:33;25.55;;;8.07;;
43998;SDS011;51319;52.162;5.302;2023-07-02T06:20:03;20.55;;;7.45;;
43998;SDS011;51319;52.162;5.302;2023-07-02T06:25:00;20.58;;;6.40;;
43998;SDS011;51319;52.162;5.302;2023-07-02T06:27:31;20.33;;;7.07;;
43998;SDS011;51319;52.162;5.302;2023-07-02T06:29:58;22.20;;;7.07;;
43998;SDS011;51319;52.162;5.302;2023-07-02T06:32:25;21.08;;;6.75;;
43998;SDS011;51319;52.162;5.302;2023-07-02T06:34:52;21.63;;;7.32;;
43998;SDS011;51319;52.162;5.302;2023-07-02T06:37:19;21.60;;;7.68;;
43998;SDS011;51319;52.162;5.302;2023-07-02T06:39:46;21.45;;;6.53;;
43998;SDS011;51319;52.162;5.302;2023-07-02T06:42:13;19.77;;;7.55;;
43998;SDS011;51319;52.162;5.302;2023-07-02T06:44:40;17.77;;;6.53;;
43998;SDS011;51319;52.162;5.302;2023-07-02T06:47:07;25.30;;;6.82;;
43998;SDS011;51319;52.162;5.302;2023-07-02T06:49:36;22.60;;;6.53;;
43998;SDS011;51319;52.162;5.302;2023-07-02T06:52:03;18.73;;;6.72;;
43998;SDS011;51319;52.162;5.302;2023-07-02T06:54:30;19.88;;;7.18;;
43998;SDS011;51319;52.162;5.302;2023-07-02T06:56:57;19.98;;;6.45;;
43998;SDS011;51319;52.162;5.302;2023-07-02T06:59:24;20.05;;;6.88;;
43998;SDS011;51319;52.162;5.302;2023-07-02T07:01:51;18.88;;;6.40;;
43998;SDS011;51319;52.162;5.302;2023-07-02T07:04:18;17.83;;;6.35;;
43998;SDS011;51319;52.162;5.302;2023-07-02T07:06:45;18.13;;;6.10;;
43998;SDS011;51319;52.162;5.302;2023-07-02T07:09:12;14.60;;;6.03;;
43998;SDS011;51319;52.162;5.302;2023-07-02T07:11:39;11.90;;;6.20;;
43998;SDS011;51319;52.162;5.302;2023-07-02T07:14:06;17.45;;;6.05;;
43998;SDS011;51319;52.162;5.302;2023-07-02T07:16:33;16.05;;;6.20;;
43998;SDS011;51319;52.162;5.302;2023-07-02T07:19:00;14.45;;;5.63;;
43998;SDS011;51319;52.162;5.302;2023-07-02T07:21:27;16.17;;;5.50;;
43998;SDS011;51319;52.162;5.302;2023-07-02T07:23:54;13.95;;;5.97;;
43998;SDS011;51319;52.162;5.302;2023-07-02T07:26:21;16.38;;;5.65;;
43998;SDS011;51319;52.162;5.302;2023-07-02T07:28:48;16.70;;;5.32;;
43998;SDS011;51319;52.162;5.302;2023-07-02T07:31:16;18.90;;;6.13;;
43998;SDS011;51319;52.162;5.302;2023-07-02T07:33:43;11.73;;;5.53;;
43998;SDS011;51319;52.162;5.302;2023-07-02T07:36:10;12.98;;;5.53;;
43998;SDS011;51319;52.162;5.302;2023-07-02T07:38:37;13.18;;;5.32;;
43998;SDS011;51319;52.162;5.302;2023-07-02T07:41:04;13.27;;;5.22;;
43998;SDS011;51319;52.162;5.302;2023-07-02T07:43:31;9.80;;;4.78;;
43998;SDS011;51319;52.162;5.302;2023-07-02T07:45:58;12.50;;;4.38;;
43998;SDS011;51319;52.162;5.302;2023-07-02T07:48:25;14.32;;;6.55;;
43998;SDS011;51319;52.162;5.302;2023-07-02T07:50:52;21.52;;;8.98;;
43998;SDS011;51319;52.162;5.302;2023-07-02T07:53:19;9.05;;;4.90;;
43998;SDS011;51319;52.162;5.302;2023-07-02T07:55:46;15.02;;;5.68;;
43998;SDS011;51319;52.162;5.302;2023-07-02T07:58:13;11.60;;;5.78;;
43998;SDS011;51319;52.162;5.302;2023-07-02T08:00:40;14.38;;;5.80;;
43998;SDS011;51319;52.162;5.302;2023-07-02T08:03:07;16.65;;;6.55;;
43998;SDS011;51319;52.162;5.302;2023-07-02T08:05:35;17.30;;;6.03;;
43998;SDS011;51319;52.162;5.302;2023-07-02T08:08:02;17.70;;;6.18;;
43998;SDS011;51319;52.162;5.302;2023-07-02T08:10:31;12.90;;;5.60;;
43998;SDS011;51319;52.162;5.302;2023-07-02T08:12:58;14.18;;;5.70;;
43998;SDS011;51319;52.162;5.302;2023-07-02T08:15:25;16.60;;;7.60;;
43998;SDS011;51319;52.162;5.302;2023-07-02T08:17:52;30.83;;;14.90;;
43998;SDS011;51319;52.162;5.302;2023-07-02T08:20:21;15.02;;;6.50;;
43998;SDS011;51319;52.162;5.302;2023-07-02T08:22:48;23.83;;;9.27;;
43998;SDS011;51319;52.162;5.302;2023-07-02T08:25:17;20.05;;;6.05;;
43998;SDS011;51319;52.162;5.302;2023-07-02T08:27:44;17.42;;;6.50;;
43998;SDS011;51319;52.162;5.302;2023-07-02T08:30:11;12.65;;;6.35;;
43998;SDS011;51319;52.162;5.302;2023-07-02T08:32:38;12.40;;;5.50;;
43998;SDS011;51319;52.162;5.302;2023-07-02T08:35:06;14.13;;;5.78;;
43998;SDS011;51319;52.162;5.302;2023-07-02T08:37:33;14.70;;;6.93;;
43998;SDS011;51319;52.162;5.302;2023-07-02T08:40:00;11.05;;;5.90;;
43998;SDS011;51319;52.162;5.302;2023-07-02T08:42:27;11.02;;;5.30;;
43998;SDS011;51319;52.162;5.302;2023-07-02T08:44:56;12.57;;;5.43;;
43998;SDS011;51319;52.162;5.302;2023-07-02T08:47:25;17.50;;;5.10;;
43998;SDS011;51319;52.162;5.302;2023-07-02T08:49:52;13.90;;;5.30;;
43998;SDS011;51319;52.162;5.302;2023-07-02T08:52:19;11.18;;;4.97;;
43998;SDS011;51319;52.162;5.302;2023-07-02T08:54:46;14.25;;;5.45;;
43998;SDS011;51319;52.162;5.302;2023-07-02T08:57:13;15.43;;;5.28;;
43998;SDS011;51319;52.162;5.302;2023-07-02T08:59:40;17.00;;;5.63;;
43998;SDS011;51319;52.162;5.302;2023-07-02T09:02:07;14.75;;;5.63;;
43998;SDS011;51319;52.162;5.302;2023-07-02T09:04:34;12.02;;;4.68;;
43998;SDS011;51319;52.162;5.302;2023-07-02T09:07:04;11.70;;;5.20;;
43998;SDS011;51319;52.162;5.302;2023-07-02T09:09:32;15.02;;;4.78;;
43998;SDS011;51319;52.162;5.302;2023-07-02T09:12:09;11.43;;;4.72;;
43998;SDS011;51319;52.162;5.302;2023-07-02T09:14:36;14.27;;;4.50;;
43998;SDS011;51319;52.162;5.302;2023-07-02T09:17:07;7.75;;;4.00;;
43998;SDS011;51319;52.162;5.302;2023-07-02T09:19:35;13.30;;;4.90;;
43998;SDS011;51319;52.162;5.302;2023-07-02T09:22:14;13.63;;;4.30;;
43998;SDS011;51319;52.162;5.302;2023-07-02T09:24:42;10.25;;;4.03;;
43998;SDS011;51319;52.162;5.302;2023-07-02T09:27:19;9.75;;;3.72;;
43998;SDS011;51319;52.162;5.302;2023-07-02T09:29:51;9.85;;;4.15;;
43998;SDS011;51319;52.162;5.302;2023-07-02T09:32:25;6.90;;;4.13;;
43998;SDS011;51319;52.162;5.302;2023-07-02T09:34:54;7.97;;;3.22;;
43998;SDS011;51319;52.162;5.302;2023-07-02T09:37:24;6.45;;;3.13;;
43998;SDS011;51319;52.162;5.302;2023-07-02T09:39:51;7.55;;;3.45;;
43998;SDS011;51319;52.162;5.302;2023-07-02T09:42:21;10.70;;;3.38;;
43998;SDS011;51319;52.162;5.302;2023-07-02T09:44:50;14.23;;;3.47;;
43998;SDS011;51319;52.162;5.302;2023-07-02T09:47:18;7.65;;;3.67;;
43998;SDS011;51319;52.162;5.302;2023-07-02T09:49:49;7.80;;;3.75;;
43998;SDS011;51319;52.162;5.302;2023-07-02T09:52:19;10.45;;;3.53;;
43998;SDS011;51319;52.162;5.302;2023-07-02T09:54:47;9.48;;;3.58;;
43998;SDS011;51319;52.162;5.302;2023-07-02T09:57:14;8.27;;;3.50;;
43998;SDS011;51319;52.162;5.302;2023-07-02T09:59:42;6.25;;;2.70;;
43998;SDS011;51319;52.162;5.302;2023-07-02T10:02:09;5.38;;;3.13;;
43998;SDS011;51319;52.162;5.302;2023-07-02T10:04:55;6.40;;;3.10;;
43998;SDS011;51319;52.162;5.302;2023-07-02T10:07:27;4.72;;;2.67;;
43998;SDS011;51319;52.162;5.302;2023-07-02T10:09:55;5.63;;;2.90;;
43998;SDS011;51319;52.162;5.302;2023-07-02T10:12:29;6.22;;;3.13;;
43998;SDS011;51319;52.162;5.302;2023-07-02T10:14:57;6.88;;;2.50;;
43998;SDS011;51319;52.162;5.302;2023-07-02T10:17:25;6.35;;;2.97;;
43998;SDS011;51319;52.162;5.302;2023-07-02T10:20:01;5.05;;;2.88;;
43998;SDS011;51319;52.162;5.302;2023-07-02T10:25:23;12.07;;;7.45;;
43998;SDS011;51319;52.162;5.302;2023-07-02T10:27:55;31.90;;;19.70;;
43998;SDS011;51319;52.162;5.302;2023-07-02T10:30:35;6.50;;;3.72;;
43998;SDS011;51319;52.162;5.302;2023-07-02T10:33:10;6.07;;;3.20;;
43998;SDS011;51319;52.162;5.302;2023-07-02T10:35:42;10.73;;;4.40;;
43998;SDS011;51319;52.162;5.302;2023-07-02T10:38:14;12.85;;;6.18;;
43998;SDS011;51319;52.162;5.302;2023-07-02T10:40:58;8.75;;;3.70;;
43998;SDS011;51319;52.162;5.302;2023-07-02T10:43:30;7.35;;;3.33;;
43998;SDS011;51319;52.162;5.302;2023-07-02T10:45:58;18.63;;;4.07;;
43998;SDS011;51319;52.162;5.302;2023-07-02T10:48:28;12.48;;;5.85;;
43998;SDS011;51319;52.162;5.302;2023-07-02T10:50:55;12.05;;;5.00;;
43998;SDS011;51319;52.162;5.302;2023-07-02T10:53:23;8.38;;;4.07;;
43998;SDS011;51319;52.162;5.302;2023-07-02T10:55:56;10.68;;;5.50;;
43998;SDS011;51319;52.162;5.302;2023-07-02T10:58:24;9.32;;;3.42;;
43998;SDS011;51319;52.162;5.302;2023-07-02T11:00:51;5.35;;;2.70;;
43998;SDS011;51319;52.162;5.302;2023-07-02T11:03:23;6.78;;;3.08;;
43998;SDS011;51319;52.162;5.302;2023-07-02T11:05:51;10.32;;;3.60;;
43998;SDS011;51319;52.162;5.302;2023-07-02T11:08:22;9.55;;;3.40;;
43998;SDS011;51319;52.162;5.302;2023-07-02T11:10:51;8.57;;;3.00;;
43998;SDS011;51319;52.162;5.302;2023-07-02T11:13:43;8.90;;;3.53;;
43998;SDS011;51319;52.162;5.302;2023-07-02T11:16:24;8.25;;;3.63;;
43998;SDS011;51319;52.162;5.302;2023-07-02T11:21:20;7.57;;;3.20;;
43998;SDS011;51319;52.162;5.302;2023-07-02T11:23:47;7.78;;;3.50;;
43998;SDS011;51319;52.162;5.302;2023-07-02T11:26:14;10.18;;;3.75;;
43998;SDS011;51319;52.162;5.302;2023-07-02T11:28:48;8.80;;;4.07;;
43998;SDS011;51319;52.162;5.302;2023-07-02T11:31:24;10.38;;;3.60;;
43998;SDS011;51319;52.162;5.302;2023-07-02T11:33:52;13.80;;;4.22;;
43998;SDS011;51319;52.162;5.302;2023-07-02T11:36:20;8.15;;;3.83;;
43998;SDS011;51319;52.162;5.302;2023-07-02T11:41:18;9.13;;;4.25;;
43998;SDS011;51319;52.162;5.302;2023-07-02T11:43:47;8.52;;;4.13;;
43998;SDS011;51319;52.162;5.302;2023-07-02T11:46:14;12.40;;;7.13;;
43998;SDS011;51319;52.162;5.302;2023-07-02T11:48:41;7.85;;;3.75;;
43998;SDS011;51319;52.162;5.302;2023-07-02T11:51:09;8.15;;;4.05;;
43998;SDS011;51319;52.162;5.302;2023-07-02T11:53:36;8.98;;;4.55;;
43998;SDS011;51319;52.162;5.302;2023-07-02T11:56:03;9.88;;;3.75;;
43998;SDS011;51319;52.162;5.302;2023-07-02T11:58:30;8.93;;;3.92;;
43998;SDS011;51319;52.162;5.302;2023-07-02T12:00:57;7.45;;;3.50;;
43998;SDS011;51319;52.162;5.302;2023-07-02T12:03:24;10.30;;;3.22;;
43998;SDS011;51319;52.162;5.302;2023-07-02T12:05:51;6.88;;;3.17;;
43998;SDS011;51319;52.162;5.302;2023-07-02T12:08:18;8.75;;;3.20;;
43998;SDS011;51319;52.162;5.302;2023-07-02T12:10:45;6.85;;;3.33;;
43998;SDS011;51319;52.162;5.302;2023-07-02T12:13:12;6.82;;;3.42;;
43998;SDS011;51319;52.162;5.302;2023-07-02T12:15:39;4.70;;;3.38;;
43998;SDS011;51319;52.162;5.302;2023-07-02T12:18:06;8.38;;;3.97;;
43998;SDS011;51319;52.162;5.302;2023-07-02T12:20:35;6.57;;;3.30;;
43998;SDS011;51319;52.162;5.302;2023-07-02T12:23:02;6.15;;;3.35;;
43998;SDS011;51319;52.162;5.302;2023-07-02T12:25:29;7.60;;;3.25;;
43998;SDS011;51319;52.162;5.302;2023-07-02T12:27:56;5.93;;;3.35;;
43998;SDS011;51319;52.162;5.302;2023-07-02T12:30:23;9.05;;;3.47;;
43998;SDS011;51319;52.162;5.302;2023-07-02T12:32:50;8.50;;;4.15;;
43998;SDS011;51319;52.162;5.302;2023-07-02T12:35:17;8.52;;;3.78;;
43998;SDS011;51319;52.162;5.302;2023-07-02T12:37:44;8.10;;;4.40;;
43998;SDS011;51319;52.162;5.302;2023-07-02T12:40:12;9.00;;;3.75;;
43998;SDS011;51319;52.162;5.302;2023-07-02T12:42:40;11.07;;;4.10;;
43998;SDS011;51319;52.162;5.302;2023-07-02T12:45:08;6.03;;;3.63;;
43998;SDS011;51319;52.162;5.302;2023-07-02T12:47:40;5.80;;;3.65;;
43998;SDS011;51319;52.162;5.302;2023-07-02T12:50:08;8.43;;;3.92;;
43998;SDS011;51319;52.162;5.302;2023-07-02T12:52:36;9.15;;;3.90;;
43998;SDS011;51319;52.162;5.302;2023-07-02T12:55:03;11.05;;;4.53;;
43998;SDS011;51319;52.162;5.302;2023-07-02T12:57:30;8.38;;;3.97;;
43998;SDS011;51319;52.162;5.302;2023-07-02T12:59:57;11.38;;;3.97;;
43998;SDS011;51319;52.162;5.302;2023-07-02T13:02:24;10.05;;;4.13;;
43998;SDS011;51319;52.162;5.302;2023-07-02T13:04:51;11.18;;;4.65;;
43998;SDS011;51319;52.162;5.302;2023-07-02T13:07:18;10.95;;;5.00;;
43998;SDS011;51319;52.162;5.302;2023-07-02T13:09:45;12.18;;;3.88;;
43998;SDS011;51319;52.162;5.302;2023-07-02T13:12:12;6.43;;;3.70;;
43998;SDS011;51319;52.162;5.302;2023-07-02T13:14:40;9.50;;;4.30;;
43998;SDS011;51319;52.162;5.302;2023-07-02T13:17:07;8.23;;;4.05;;
43998;SDS011;51319;52.162;5.302;2023-07-02T13:19:34;12.00;;;4.70;;
43998;SDS011;51319;52.162;5.302;2023-07-02T13:22:01;9.75;;;4.38;;
43998;SDS011;51319;52.162;5.302;2023-07-02T13:24:32;10.10;;;4.05;;
43998;SDS011;51319;52.162;5.302;2023-07-02T13:27:04;8.77;;;4.07;;
43998;SDS011;51319;52.162;5.302;2023-07-02T13:29:35;8.68;;;4.20;;
43998;SDS011;51319;52.162;5.302;2023-07-02T13:32:02;11.00;;;4.15;;
43998;SDS011;51319;52.162;5.302;2023-07-02T13:34:29;9.35;;;4.32;;
43998;SDS011;51319;52.162;5.302;2023-07-02T13:36:56;12.20;;;4.85;;
43998;SDS011;51319;52.162;5.302;2023-07-02T13:39:23;10.80;;;4.22;;
43998;SDS011;51319;52.162;5.302;2023-07-02T13:41:50;7.55;;;3.85;;
43998;SDS011;51319;52.162;5.302;2023-07-02T13:44:17;11.43;;;5.50;;
43998;SDS011;51319;52.162;5.302;2023-07-02T13:46:45;11.52;;;6.47;;
43998;SDS011;51319;52.162;5.302;2023-07-02T13:49:13;13.23;;;5.50;;
43998;SDS011;51319;52.162;5.302;2023-07-02T13:51:40;8.18;;;4.90;;
43998;SDS011;51319;52.162;5.302;2023-07-02T13:54:07;8.35;;;4.22;;
43998;SDS011;51319;52.162;5.302;2023-07-02T13:56:35;9.80;;;4.75;;
43998;SDS011;51319;52.162;5.302;2023-07-02T13:59:03;10.20;;;4.75;;
43998;SDS011;51319;52.162;5.302;2023-07-02T14:01:30;14.20;;;7.18;;
43998;SDS011;51319;52.162;5.302;2023-07-02T14:03:58;18.50;;;8.55;;
43998;SDS011;51319;52.162;5.302;2023-07-02T14:06:26;22.33;;;12.63;;
43998;SDS011;51319;52.162;5.302;2023-07-02T14:08:53;10.90;;;5.25;;
43998;SDS011;51319;52.162;5.302;2023-07-02T14:11:21;11.02;;;4.68;;
43998;SDS011;51319;52.162;5.302;2023-07-02T14:13:49;9.65;;;4.28;;
43998;SDS011;51319;52.162;5.302;2023-07-02T14:16:19;17.05;;;10.52;;
43998;SDS011;51319;52.162;5.302;2023-07-02T14:18:46;25.08;;;11.35;;
43998;SDS011;51319;52.162;5.302;2023-07-02T14:21:13;12.75;;;5.05;;
43998;SDS011;51319;52.162;5.302;2023-07-02T14:23:40;11.27;;;5.57;;
43998;SDS011;51319;52.162;5.302;2023-07-02T14:26:07;10.95;;;5.47;;
43998;SDS011;51319;52.162;5.302;2023-07-02T14:28:34;17.02;;;8.48;;
43998;SDS011;51319;52.162;5.302;2023-07-02T14:31:02;11.45;;;5.00;;
43998;SDS011;51319;52.162;5.302;2023-07-02T14:33:32;8.10;;;4.57;;
43998;SDS011;51319;52.162;5.302;2023-07-02T14:36:00;12.43;;;5.37;;
43998;SDS011;51319;52.162;5.302;2023-07-02T14:38:28;12.82;;;5.18;;
43998;SDS011;51319;52.162;5.302;2023-07-02T14:40:56;8.88;;;4.65;;
43998;SDS011;51319;52.162;5.302;2023-07-02T14:43:26;10.32;;;5.13;;
43998;SDS011;51319;52.162;5.302;2023-07-02T14:45:54;16.08;;;10.27;;
43998;SDS011;51319;52.162;5.302;2023-07-02T14:48:24;9.45;;;4.43;;
43998;SDS011;51319;52.162;5.302;2023-07-02T14:50:52;8.30;;;4.50;;
43998;SDS011;51319;52.162;5.302;2023-07-02T14:53:24;9.43;;;3.92;;
43998;SDS011;51319;52.162;5.302;2023-07-02T14:55:54;9.75;;;4.45;;
43998;SDS011;51319;52.162;5.302;2023-07-02T14:58:22;10.82;;;4.38;;